sensor_id;sensor_type;location;lat;lon;timestamp;P1;durP1;ratioP1;P2;durP2;ratioP2
69594;SDS011;56800;52.142;5.364;2023-08-31T00:01:00;4.87;;;2.10;;
69594;SDS011;56800;52.142;5.364;2023-08-31T00:03:30;7.28;;;2.55;;
69594;SDS011;56800;52.142;5.364;2023-08-31T00:06:00;6.47;;;2.67;;
69594;SDS011;56800;52.142;5.364;2023-08-31T00:08:28;9.48;;;3.00;;
69594;SDS011;56800;52.142;5.364;2023-08-31T00:10:56;6.63;;;2.90;;
69594;SDS011;56800;52.142;5.364;2023-08-31T00:13:24;8.03;;;3.47;;
69594;SDS011;56800;52.142;5.364;2023-08-31T00:15:50;5.45;;;3.13;;
69594;SDS011;56800;52.142;5.364;2023-08-31T00:18:17;8.52;;;2.90;;
69594;SDS011;56800;52.142;5.364;2023-08-31T00:20:47;5.93;;;2.92;;
69594;SDS011;56800;52.142;5.364;2023-08-31T00:23:16;8.73;;;3.15;;
69594;SDS011;56800;52.142;5.364;2023-08-31T00:25:45;6.03;;;3.10;;
69594;SDS011;56800;52.142;5.364;2023-08-31T00:28:14;6.80;;;3.17;;
69594;SDS011;56800;52.142;5.364;2023-08-31T00:30:42;7.43;;;3.47;;
69594;SDS011;56800;52.142;5.364;2023-08-31T00:33:11;10.25;;;3.38;;
69594;SDS011;56800;52.142;5.364;2023-08-31T00:35:39;6.13;;;3.28;;
69594;SDS011;56800;52.142;5.364;2023-08-31T00:38:10;7.30;;;3.20;;
69594;SDS011;56800;52.142;5.364;2023-08-31T00:40:40;11.02;;;3.67;;
69594;SDS011;56800;52.142;5.364;2023-08-31T00:43:20;7.97;;;3.67;;
69594;SDS011;56800;52.142;5.364;2023-08-31T00:45:48;10.30;;;3.25;;
69594;SDS011;56800;52.142;5.364;2023-08-31T00:48:16;7.90;;;3.20;;
69594;SDS011;56800;52.142;5.364;2023-08-31T00:50:47;6.30;;;3.20;;
69594;SDS011;56800;52.142;5.364;2023-08-31T00:53:15;8.88;;;3.28;;
69594;SDS011;56800;52.142;5.364;2023-08-31T00:55:51;8.13;;;3.08;;
69594;SDS011;56800;52.142;5.364;2023-08-31T00:58:19;9.68;;;3.20;;
69594;SDS011;56800;52.142;5.364;2023-08-31T01:00:48;9.02;;;3.45;;
69594;SDS011;56800;52.142;5.364;2023-08-31T01:09:16;8.60;;;3.50;;
69594;SDS011;56800;52.142;5.364;2023-08-31T01:14:42;7.30;;;4.03;;
69594;SDS011;56800;52.142;5.364;2023-08-31T01:17:14;10.43;;;4.20;;
69594;SDS011;56800;52.142;5.364;2023-08-31T01:19:50;9.80;;;4.07;;
69594;SDS011;56800;52.142;5.364;2023-08-31T01:25:14;7.55;;;3.20;;
69594;SDS011;56800;52.142;5.364;2023-08-31T01:27:42;6.65;;;3.45;;
69594;SDS011;56800;52.142;5.364;2023-08-31T01:30:09;6.33;;;3.57;;
69594;SDS011;56800;52.142;5.364;2023-08-31T01:32:37;10.48;;;3.80;;
69594;SDS011;56800;52.142;5.364;2023-08-31T01:35:11;11.68;;;4.25;;
69594;SDS011;56800;52.142;5.364;2023-08-31T01:37:45;8.10;;;3.58;;
69594;SDS011;56800;52.142;5.364;2023-08-31T01:43:02;8.17;;;3.87;;
69594;SDS011;56800;52.142;5.364;2023-08-31T01:45:31;11.98;;;4.25;;
69594;SDS011;56800;52.142;5.364;2023-08-31T01:48:00;8.68;;;4.38;;
69594;SDS011;56800;52.142;5.364;2023-08-31T01:50:27;7.75;;;4.32;;
69594;SDS011;56800;52.142;5.364;2023-08-31T01:52:54;10.57;;;4.50;;
69594;SDS011;56800;52.142;5.364;2023-08-31T01:55:22;9.67;;;4.57;;
69594;SDS011;56800;52.142;5.364;2023-08-31T01:57:49;8.07;;;4.47;;
69594;SDS011;56800;52.142;5.364;2023-08-31T02:00:17;9.65;;;4.22;;
69594;SDS011;56800;52.142;5.364;2023-08-31T02:02:45;7.85;;;4.15;;
69594;SDS011;56800;52.142;5.364;2023-08-31T02:05:12;8.77;;;4.60;;
69594;SDS011;56800;52.142;5.364;2023-08-31T02:07:39;9.70;;;4.53;;
69594;SDS011;56800;52.142;5.364;2023-08-31T02:10:06;10.23;;;5.45;;
69594;SDS011;56800;52.142;5.364;2023-08-31T02:12:33;7.13;;;4.65;;
69594;SDS011;56800;52.142;5.364;2023-08-31T02:15:05;6.53;;;4.65;;
69594;SDS011;56800;52.142;5.364;2023-08-31T02:17:35;8.88;;;5.35;;
69594;SDS011;56800;52.142;5.364;2023-08-31T02:20:02;8.60;;;4.83;;
69594;SDS011;56800;52.142;5.364;2023-08-31T02:22:31;10.32;;;5.57;;
69594;SDS011;56800;52.142;5.364;2023-08-31T02:25:00;8.40;;;5.30;;
69594;SDS011;56800;52.142;5.364;2023-08-31T02:27:27;7.78;;;5.10;;
69594;SDS011;56800;52.142;5.364;2023-08-31T02:29:54;10.40;;;6.05;;
69594;SDS011;56800;52.142;5.364;2023-08-31T02:32:21;7.20;;;5.30;;
69594;SDS011;56800;52.142;5.364;2023-08-31T02:34:49;9.23;;;5.90;;
69594;SDS011;56800;52.142;5.364;2023-08-31T02:37:16;7.22;;;5.05;;
69594;SDS011;56800;52.142;5.364;2023-08-31T02:39:43;13.18;;;6.10;;
69594;SDS011;56800;52.142;5.364;2023-08-31T02:42:09;13.20;;;5.88;;
69594;SDS011;56800;52.142;5.364;2023-08-31T02:44:36;10.70;;;5.93;;
69594;SDS011;56800;52.142;5.364;2023-08-31T02:47:03;12.38;;;5.78;;
69594;SDS011;56800;52.142;5.364;2023-08-31T02:49:30;10.70;;;6.05;;
69594;SDS011;56800;52.142;5.364;2023-08-31T02:51:56;11.05;;;5.60;;
69594;SDS011;56800;52.142;5.364;2023-08-31T02:54:23;9.50;;;4.70;;
69594;SDS011;56800;52.142;5.364;2023-08-31T02:56:50;10.90;;;5.30;;
69594;SDS011;56800;52.142;5.364;2023-08-31T02:59:16;8.43;;;4.53;;
69594;SDS011;56800;52.142;5.364;2023-08-31T03:01:43;9.15;;;4.68;;
69594;SDS011;56800;52.142;5.364;2023-08-31T03:04:12;10.80;;;4.60;;
69594;SDS011;56800;52.142;5.364;2023-08-31T03:06:39;9.98;;;4.10;;
69594;SDS011;56800;52.142;5.364;2023-08-31T03:09:06;7.60;;;3.97;;
69594;SDS011;56800;52.142;5.364;2023-08-31T03:11:32;8.70;;;4.00;;
69594;SDS011;56800;52.142;5.364;2023-08-31T03:13:59;7.75;;;4.03;;
69594;SDS011;56800;52.142;5.364;2023-08-31T03:16:26;6.28;;;4.15;;
69594;SDS011;56800;52.142;5.364;2023-08-31T03:18:53;9.73;;;3.90;;
69594;SDS011;56800;52.142;5.364;2023-08-31T03:21:19;8.73;;;3.90;;
69594;SDS011;56800;52.142;5.364;2023-08-31T03:23:46;10.20;;;4.13;;
69594;SDS011;56800;52.142;5.364;2023-08-31T03:26:13;9.52;;;4.07;;
69594;SDS011;56800;52.142;5.364;2023-08-31T03:28:40;7.38;;;3.75;;
69594;SDS011;56800;52.142;5.364;2023-08-31T03:31:07;8.07;;;3.70;;
69594;SDS011;56800;52.142;5.364;2023-08-31T03:33:34;7.13;;;3.30;;
69594;SDS011;56800;52.142;5.364;2023-08-31T03:36:01;7.95;;;2.88;;
69594;SDS011;56800;52.142;5.364;2023-08-31T03:38:31;7.57;;;3.00;;
69594;SDS011;56800;52.142;5.364;2023-08-31T03:40:58;7.20;;;3.00;;
69594;SDS011;56800;52.142;5.364;2023-08-31T03:43:24;5.60;;;2.80;;
69594;SDS011;56800;52.142;5.364;2023-08-31T03:45:54;8.33;;;3.30;;
69594;SDS011;56800;52.142;5.364;2023-08-31T03:48:25;9.02;;;3.63;;
69594;SDS011;56800;52.142;5.364;2023-08-31T03:50:54;13.77;;;3.00;;
69594;SDS011;56800;52.142;5.364;2023-08-31T03:53:22;9.10;;;3.17;;
69594;SDS011;56800;52.142;5.364;2023-08-31T03:55:48;6.13;;;2.45;;
69594;SDS011;56800;52.142;5.364;2023-08-31T03:58:15;6.50;;;2.43;;
69594;SDS011;56800;52.142;5.364;2023-08-31T04:00:42;6.43;;;2.63;;
69594;SDS011;56800;52.142;5.364;2023-08-31T04:03:09;4.80;;;2.47;;
69594;SDS011;56800;52.142;5.364;2023-08-31T04:05:37;5.25;;;2.78;;
69594;SDS011;56800;52.142;5.364;2023-08-31T04:08:03;7.45;;;2.75;;
69594;SDS011;56800;52.142;5.364;2023-08-31T04:10:31;4.67;;;2.80;;
69594;SDS011;56800;52.142;5.364;2023-08-31T04:12:58;7.47;;;3.10;;
69594;SDS011;56800;52.142;5.364;2023-08-31T04:15:25;11.65;;;3.45;;
69594;SDS011;56800;52.142;5.364;2023-08-31T04:17:52;9.40;;;3.63;;
69594;SDS011;56800;52.142;5.364;2023-08-31T04:20:19;10.75;;;3.53;;
69594;SDS011;56800;52.142;5.364;2023-08-31T04:22:45;7.20;;;3.50;;
69594;SDS011;56800;52.142;5.364;2023-08-31T04:25:12;8.82;;;3.60;;
69594;SDS011;56800;52.142;5.364;2023-08-31T04:27:39;7.70;;;3.33;;
69594;SDS011;56800;52.142;5.364;2023-08-31T04:30:06;8.30;;;3.95;;
69594;SDS011;56800;52.142;5.364;2023-08-31T04:32:34;9.63;;;3.95;;
69594;SDS011;56800;52.142;5.364;2023-08-31T04:35:03;11.77;;;4.60;;
69594;SDS011;56800;52.142;5.364;2023-08-31T04:37:31;9.73;;;3.72;;
69594;SDS011;56800;52.142;5.364;2023-08-31T04:39:59;8.82;;;3.90;;
69594;SDS011;56800;52.142;5.364;2023-08-31T04:42:26;9.27;;;3.95;;
69594;SDS011;56800;52.142;5.364;2023-08-31T04:44:52;13.52;;;3.83;;
69594;SDS011;56800;52.142;5.364;2023-08-31T04:47:19;10.50;;;4.10;;
69594;SDS011;56800;52.142;5.364;2023-08-31T04:49:46;7.70;;;3.72;;
69594;SDS011;56800;52.142;5.364;2023-08-31T04:52:12;11.68;;;4.03;;
69594;SDS011;56800;52.142;5.364;2023-08-31T04:54:39;9.88;;;3.75;;
69594;SDS011;56800;52.142;5.364;2023-08-31T04:57:06;5.80;;;3.83;;
69594;SDS011;56800;52.142;5.364;2023-08-31T04:59:33;16.97;;;4.90;;
69594;SDS011;56800;52.142;5.364;2023-08-31T05:02:00;6.63;;;3.35;;
69594;SDS011;56800;52.142;5.364;2023-08-31T05:04:27;8.43;;;3.58;;
69594;SDS011;56800;52.142;5.364;2023-08-31T05:06:55;8.75;;;3.40;;
69594;SDS011;56800;52.142;5.364;2023-08-31T05:09:23;11.77;;;3.17;;
69594;SDS011;56800;52.142;5.364;2023-08-31T05:11:50;6.20;;;2.60;;
69594;SDS011;56800;52.142;5.364;2023-08-31T05:14:17;6.93;;;2.42;;
69594;SDS011;56800;52.142;5.364;2023-08-31T05:16:44;5.97;;;2.55;;
69594;SDS011;56800;52.142;5.364;2023-08-31T05:19:11;7.22;;;3.00;;
69594;SDS011;56800;52.142;5.364;2023-08-31T05:21:38;7.22;;;2.80;;
69594;SDS011;56800;52.142;5.364;2023-08-31T05:24:04;6.53;;;2.87;;
69594;SDS011;56800;52.142;5.364;2023-08-31T05:26:31;6.43;;;2.85;;
69594;SDS011;56800;52.142;5.364;2023-08-31T05:28:58;9.23;;;3.40;;
69594;SDS011;56800;52.142;5.364;2023-08-31T05:31:25;4.93;;;3.13;;
69594;SDS011;56800;52.142;5.364;2023-08-31T05:33:51;9.15;;;3.22;;
69594;SDS011;56800;52.142;5.364;2023-08-31T05:36:18;8.57;;;3.77;;
69594;SDS011;56800;52.142;5.364;2023-08-31T05:38:45;6.53;;;3.20;;
69594;SDS011;56800;52.142;5.364;2023-08-31T05:41:12;7.18;;;3.33;;
69594;SDS011;56800;52.142;5.364;2023-08-31T05:43:39;6.47;;;3.90;;
69594;SDS011;56800;52.142;5.364;2023-08-31T05:46:09;9.95;;;3.55;;
69594;SDS011;56800;52.142;5.364;2023-08-31T05:48:36;7.63;;;3.47;;
69594;SDS011;56800;52.142;5.364;2023-08-31T05:51:03;9.55;;;3.50;;
69594;SDS011;56800;52.142;5.364;2023-08-31T05:53:30;7.60;;;3.13;;
69594;SDS011;56800;52.142;5.364;2023-08-31T05:55:57;9.50;;;3.42;;
69594;SDS011;56800;52.142;5.364;2023-08-31T05:58:31;9.30;;;3.28;;
69594;SDS011;56800;52.142;5.364;2023-08-31T06:01:03;7.30;;;3.50;;
69594;SDS011;56800;52.142;5.364;2023-08-31T06:03:31;10.10;;;3.75;;
69594;SDS011;56800;52.142;5.364;2023-08-31T06:05:58;14.65;;;3.80;;
69594;SDS011;56800;52.142;5.364;2023-08-31T06:08:25;10.73;;;4.07;;
69594;SDS011;56800;52.142;5.364;2023-08-31T06:10:52;8.30;;;3.60;;
69594;SDS011;56800;52.142;5.364;2023-08-31T06:13:19;10.20;;;3.33;;
69594;SDS011;56800;52.142;5.364;2023-08-31T06:15:45;9.35;;;3.03;;
69594;SDS011;56800;52.142;5.364;2023-08-31T06:18:12;9.63;;;3.35;;
69594;SDS011;56800;52.142;5.364;2023-08-31T06:20:39;8.75;;;3.50;;
69594;SDS011;56800;52.142;5.364;2023-08-31T06:23:06;10.90;;;3.67;;
69594;SDS011;56800;52.142;5.364;2023-08-31T06:25:33;8.70;;;4.00;;
69594;SDS011;56800;52.142;5.364;2023-08-31T06:28:00;10.00;;;4.18;;
69594;SDS011;56800;52.142;5.364;2023-08-31T06:30:26;14.15;;;4.65;;
69594;SDS011;56800;52.142;5.364;2023-08-31T06:32:53;9.98;;;4.50;;
69594;SDS011;56800;52.142;5.364;2023-08-31T06:35:20;14.82;;;5.38;;
69594;SDS011;56800;52.142;5.364;2023-08-31T06:37:47;14.37;;;4.70;;
69594;SDS011;56800;52.142;5.364;2023-08-31T06:40:14;13.55;;;5.47;;
69594;SDS011;56800;52.142;5.364;2023-08-31T06:42:40;11.73;;;5.75;;
69594;SDS011;56800;52.142;5.364;2023-08-31T06:45:07;11.10;;;4.53;;
69594;SDS011;56800;52.142;5.364;2023-08-31T06:47:34;8.25;;;3.55;;
69594;SDS011;56800;52.142;5.364;2023-08-31T06:50:02;6.03;;;3.33;;
69594;SDS011;56800;52.142;5.364;2023-08-31T06:52:30;6.25;;;3.03;;
69594;SDS011;56800;52.142;5.364;2023-08-31T06:54:58;6.03;;;2.50;;
69594;SDS011;56800;52.142;5.364;2023-08-31T06:57:26;5.40;;;2.88;;
69594;SDS011;56800;52.142;5.364;2023-08-31T06:59:53;7.43;;;2.60;;
69594;SDS011;56800;52.142;5.364;2023-08-31T07:02:20;8.47;;;2.90;;
69594;SDS011;56800;52.142;5.364;2023-08-31T07:04:51;9.25;;;2.78;;
69594;SDS011;56800;52.142;5.364;2023-08-31T07:07:18;7.78;;;2.85;;
69594;SDS011;56800;52.142;5.364;2023-08-31T07:09:45;7.38;;;2.78;;
69594;SDS011;56800;52.142;5.364;2023-08-31T07:12:13;10.35;;;3.60;;
69594;SDS011;56800;52.142;5.364;2023-08-31T07:14:40;7.13;;;3.43;;
69594;SDS011;56800;52.142;5.364;2023-08-31T07:17:07;7.03;;;3.80;;
69594;SDS011;56800;52.142;5.364;2023-08-31T07:19:37;8.90;;;4.25;;
69594;SDS011;56800;52.142;5.364;2023-08-31T07:22:05;9.25;;;3.90;;
69594;SDS011;56800;52.142;5.364;2023-08-31T07:24:32;9.35;;;4.18;;
69594;SDS011;56800;52.142;5.364;2023-08-31T07:27:04;11.10;;;4.03;;
69594;SDS011;56800;52.142;5.364;2023-08-31T07:29:31;9.77;;;3.30;;
69594;SDS011;56800;52.142;5.364;2023-08-31T07:31:58;11.68;;;3.65;;
69594;SDS011;56800;52.142;5.364;2023-08-31T07:34:25;8.48;;;4.32;;
69594;SDS011;56800;52.142;5.364;2023-08-31T07:36:53;11.70;;;4.35;;
69594;SDS011;56800;52.142;5.364;2023-08-31T07:39:19;8.47;;;4.20;;
69594;SDS011;56800;52.142;5.364;2023-08-31T07:41:46;8.63;;;4.07;;
69594;SDS011;56800;52.142;5.364;2023-08-31T07:44:14;11.10;;;3.90;;
69594;SDS011;56800;52.142;5.364;2023-08-31T07:46:41;10.25;;;4.20;;
69594;SDS011;56800;52.142;5.364;2023-08-31T07:49:08;11.63;;;4.35;;
69594;SDS011;56800;52.142;5.364;2023-08-31T07:51:35;10.63;;;4.37;;
69594;SDS011;56800;52.142;5.364;2023-08-31T07:54:01;10.00;;;4.03;;
69594;SDS011;56800;52.142;5.364;2023-08-31T07:56:29;10.65;;;3.83;;
69594;SDS011;56800;52.142;5.364;2023-08-31T07:58:56;7.28;;;3.58;;
69594;SDS011;56800;52.142;5.364;2023-08-31T08:01:23;9.55;;;3.40;;
69594;SDS011;56800;52.142;5.364;2023-08-31T08:03:49;9.40;;;3.17;;
69594;SDS011;56800;52.142;5.364;2023-08-31T08:06:16;6.68;;;3.50;;
69594;SDS011;56800;52.142;5.364;2023-08-31T08:08:43;11.05;;;3.63;;
69594;SDS011;56800;52.142;5.364;2023-08-31T08:11:10;7.75;;;3.20;;
69594;SDS011;56800;52.142;5.364;2023-08-31T08:13:37;8.98;;;3.67;;
69594;SDS011;56800;52.142;5.364;2023-08-31T08:16:03;13.13;;;3.77;;
69594;SDS011;56800;52.142;5.364;2023-08-31T08:18:30;6.93;;;3.13;;
69594;SDS011;56800;52.142;5.364;2023-08-31T08:20:57;9.15;;;3.72;;
69594;SDS011;56800;52.142;5.364;2023-08-31T08:23:24;9.60;;;3.72;;
69594;SDS011;56800;52.142;5.364;2023-08-31T08:25:51;9.63;;;4.20;;
69594;SDS011;56800;52.142;5.364;2023-08-31T08:28:17;11.40;;;4.67;;
69594;SDS011;56800;52.142;5.364;2023-08-31T08:30:44;8.68;;;4.65;;
69594;SDS011;56800;52.142;5.364;2023-08-31T08:33:11;10.70;;;5.65;;
69594;SDS011;56800;52.142;5.364;2023-08-31T08:35:38;11.60;;;4.95;;
69594;SDS011;56800;52.142;5.364;2023-08-31T08:38:05;11.32;;;5.75;;
69594;SDS011;56800;52.142;5.364;2023-08-31T08:40:32;8.97;;;5.30;;
69594;SDS011;56800;52.142;5.364;2023-08-31T08:43:00;11.70;;;4.88;;
69594;SDS011;56800;52.142;5.364;2023-08-31T08:45:34;12.13;;;5.18;;
69594;SDS011;56800;52.142;5.364;2023-08-31T08:48:05;17.52;;;5.72;;
69594;SDS011;56800;52.142;5.364;2023-08-31T08:50:34;10.55;;;5.40;;
69594;SDS011;56800;52.142;5.364;2023-08-31T08:53:02;13.03;;;5.10;;
69594;SDS011;56800;52.142;5.364;2023-08-31T08:55:30;9.40;;;5.43;;
69594;SDS011;56800;52.142;5.364;2023-08-31T08:58:00;11.65;;;4.93;;
69594;SDS011;56800;52.142;5.364;2023-08-31T09:00:27;10.50;;;4.75;;
69594;SDS011;56800;52.142;5.364;2023-08-31T09:02:54;9.52;;;4.35;;
69594;SDS011;56800;52.142;5.364;2023-08-31T09:05:22;8.50;;;4.27;;
69594;SDS011;56800;52.142;5.364;2023-08-31T09:08:06;13.05;;;4.90;;
69594;SDS011;56800;52.142;5.364;2023-08-31T09:10:36;11.20;;;4.25;;
69594;SDS011;56800;52.142;5.364;2023-08-31T09:13:05;7.43;;;4.05;;
69594;SDS011;56800;52.142;5.364;2023-08-31T09:18:15;11.30;;;3.63;;
69594;SDS011;56800;52.142;5.364;2023-08-31T09:20:49;12.30;;;2.85;;
69594;SDS011;56800;52.142;5.364;2023-08-31T09:23:17;11.25;;;2.63;;
69594;SDS011;56800;52.142;5.364;2023-08-31T09:25:48;9.40;;;3.10;;
69594;SDS011;56800;52.142;5.364;2023-08-31T09:28:17;7.28;;;2.58;;
69594;SDS011;56800;52.142;5.364;2023-08-31T09:30:46;7.20;;;2.43;;
69594;SDS011;56800;52.142;5.364;2023-08-31T09:33:14;7.00;;;2.10;;
69594;SDS011;56800;52.142;5.364;2023-08-31T09:35:50;7.47;;;2.13;;
69594;SDS011;56800;52.142;5.364;2023-08-31T09:38:18;9.75;;;2.35;;
69594;SDS011;56800;52.142;5.364;2023-08-31T09:40:46;9.13;;;2.45;;
69594;SDS011;56800;52.142;5.364;2023-08-31T09:43:23;10.50;;;2.47;;
69594;SDS011;56800;52.142;5.364;2023-08-31T09:45:50;8.40;;;2.13;;
69594;SDS011;56800;52.142;5.364;2023-08-31T09:48:18;9.27;;;2.53;;
69594;SDS011;56800;52.142;5.364;2023-08-31T09:50:46;7.90;;;1.95;;
69594;SDS011;56800;52.142;5.364;2023-08-31T09:53:15;5.68;;;1.85;;
69594;SDS011;56800;52.142;5.364;2023-08-31T09:55:43;14.80;;;2.37;;
69594;SDS011;56800;52.142;5.364;2023-08-31T09:58:12;6.45;;;1.60;;
69594;SDS011;56800;52.142;5.364;2023-08-31T10:00:43;11.50;;;1.67;;
69594;SDS011;56800;52.142;5.364;2023-08-31T10:03:11;10.68;;;2.00;;
69594;SDS011;56800;52.142;5.364;2023-08-31T10:05:45;5.35;;;1.60;;
69594;SDS011;56800;52.142;5.364;2023-08-31T10:08:14;12.57;;;1.60;;
69594;SDS011;56800;52.142;5.364;2023-08-31T10:10:42;6.90;;;1.60;;
69594;SDS011;56800;52.142;5.364;2023-08-31T10:13:10;8.48;;;2.10;;
69594;SDS011;56800;52.142;5.364;2023-08-31T10:15:38;12.75;;;2.00;;
69594;SDS011;56800;52.142;5.364;2023-08-31T10:18:06;7.97;;;1.63;;
69594;SDS011;56800;52.142;5.364;2023-08-31T10:20:34;10.10;;;1.53;;
69594;SDS011;56800;52.142;5.364;2023-08-31T10:23:04;5.15;;;1.88;;
69594;SDS011;56800;52.142;5.364;2023-08-31T10:28:24;6.25;;;1.73;;
69594;SDS011;56800;52.142;5.364;2023-08-31T10:33:45;6.90;;;1.97;;
69594;SDS011;56800;52.142;5.364;2023-08-31T10:36:17;6.35;;;1.98;;
69594;SDS011;56800;52.142;5.364;2023-08-31T10:38:45;3.97;;;1.40;;
69594;SDS011;56800;52.142;5.364;2023-08-31T10:41:22;7.60;;;1.42;;
69594;SDS011;56800;52.142;5.364;2023-08-31T10:46:29;6.23;;;1.93;;
69594;SDS011;56800;52.142;5.364;2023-08-31T10:49:20;5.53;;;1.60;;
69594;SDS011;56800;52.142;5.364;2023-08-31T10:51:55;6.78;;;1.58;;
69594;SDS011;56800;52.142;5.364;2023-08-31T10:54:33;3.30;;;1.40;;
69594;SDS011;56800;52.142;5.364;2023-08-31T10:57:02;5.43;;;1.58;;
69594;SDS011;56800;52.142;5.364;2023-08-31T11:05:00;4.45;;;1.55;;
69594;SDS011;56800;52.142;5.364;2023-08-31T11:07:31;7.43;;;1.42;;
69594;SDS011;56800;52.142;5.364;2023-08-31T11:12:37;7.43;;;1.23;;
69594;SDS011;56800;52.142;5.364;2023-08-31T11:15:08;2.88;;;1.08;;
69594;SDS011;56800;52.142;5.364;2023-08-31T11:17:37;3.63;;;1.13;;
69594;SDS011;56800;52.142;5.364;2023-08-31T11:20:07;7.00;;;1.70;;
69594;SDS011;56800;52.142;5.364;2023-08-31T11:22:38;4.15;;;1.40;;
69594;SDS011;56800;52.142;5.364;2023-08-31T11:25:07;4.43;;;1.50;;
69594;SDS011;56800;52.142;5.364;2023-08-31T11:27:35;3.97;;;1.20;;
69594;SDS011;56800;52.142;5.364;2023-08-31T11:30:03;4.63;;;1.30;;
69594;SDS011;56800;52.142;5.364;2023-08-31T11:32:47;5.07;;;1.55;;
69594;SDS011;56800;52.142;5.364;2023-08-31T11:35:16;3.67;;;1.20;;
69594;SDS011;56800;52.142;5.364;2023-08-31T11:37:43;4.53;;;1.30;;
69594;SDS011;56800;52.142;5.364;2023-08-31T11:40:12;2.13;;;1.10;;
69594;SDS011;56800;52.142;5.364;2023-08-31T11:42:41;5.00;;;1.50;;
69594;SDS011;56800;52.142;5.364;2023-08-31T11:45:08;2.72;;;1.20;;
69594;SDS011;56800;52.142;5.364;2023-08-31T11:47:37;5.82;;;1.60;;
69594;SDS011;56800;52.142;5.364;2023-08-31T11:50:05;3.70;;;1.30;;
69594;SDS011;56800;52.142;5.364;2023-08-31T11:52:33;4.60;;;1.40;;
69594;SDS011;56800;52.142;5.364;2023-08-31T11:55:01;3.28;;;0.98;;
69594;SDS011;56800;52.142;5.364;2023-08-31T11:57:29;6.78;;;1.77;;
69594;SDS011;56800;52.142;5.364;2023-08-31T11:59:55;3.92;;;1.35;;
69594;SDS011;56800;52.142;5.364;2023-08-31T12:02:22;2.70;;;1.30;;
69594;SDS011;56800;52.142;5.364;2023-08-31T12:04:49;6.82;;;1.48;;
69594;SDS011;56800;52.142;5.364;2023-08-31T12:07:17;3.17;;;1.25;;
69594;SDS011;56800;52.142;5.364;2023-08-31T12:09:45;4.60;;;1.38;;
69594;SDS011;56800;52.142;5.364;2023-08-31T12:12:15;4.32;;;1.40;;
69594;SDS011;56800;52.142;5.364;2023-08-31T12:14:43;3.50;;;1.17;;
69594;SDS011;56800;52.142;5.364;2023-08-31T12:17:09;4.63;;;1.42;;
69594;SDS011;56800;52.142;5.364;2023-08-31T12:19:40;7.72;;;1.67;;
69594;SDS011;56800;52.142;5.364;2023-08-31T12:22:06;2.97;;;1.30;;
69594;SDS011;56800;52.142;5.364;2023-08-31T12:24:39;3.45;;;1.60;;
69594;SDS011;56800;52.142;5.364;2023-08-31T12:27:09;3.30;;;1.40;;
69594;SDS011;56800;52.142;5.364;2023-08-31T12:29:37;5.05;;;1.83;;
69594;SDS011;56800;52.142;5.364;2023-08-31T12:32:03;4.13;;;1.52;;
69594;SDS011;56800;52.142;5.364;2023-08-31T12:34:31;3.08;;;1.52;;
69594;SDS011;56800;52.142;5.364;2023-08-31T12:36:58;4.78;;;1.95;;
69594;SDS011;56800;52.142;5.364;2023-08-31T12:39:30;4.53;;;1.60;;
69594;SDS011;56800;52.142;5.364;2023-08-31T12:41:58;3.45;;;1.27;;
69594;SDS011;56800;52.142;5.364;2023-08-31T12:44:41;2.90;;;1.50;;
69594;SDS011;56800;52.142;5.364;2023-08-31T12:47:08;4.18;;;1.50;;
69594;SDS011;56800;52.142;5.364;2023-08-31T12:49:35;7.93;;;2.00;;
69594;SDS011;56800;52.142;5.364;2023-08-31T12:52:02;4.23;;;1.57;;
69594;SDS011;56800;52.142;5.364;2023-08-31T12:54:29;5.00;;;1.85;;
69594;SDS011;56800;52.142;5.364;2023-08-31T12:56:55;4.43;;;1.50;;
69594;SDS011;56800;52.142;5.364;2023-08-31T12:59:23;4.88;;;1.63;;
69594;SDS011;56800;52.142;5.364;2023-08-31T13:01:49;4.93;;;1.50;;
69594;SDS011;56800;52.142;5.364;2023-08-31T13:04:16;4.83;;;1.63;;
69594;SDS011;56800;52.142;5.364;2023-08-31T13:06:43;6.72;;;1.33;;
69594;SDS011;56800;52.142;5.364;2023-08-31T13:09:09;3.80;;;1.92;;
69594;SDS011;56800;52.142;5.364;2023-08-31T13:11:36;4.50;;;1.75;;
69594;SDS011;56800;52.142;5.364;2023-08-31T13:14:03;7.97;;;2.15;;
69594;SDS011;56800;52.142;5.364;2023-08-31T13:16:30;4.83;;;1.50;;
69594;SDS011;56800;52.142;5.364;2023-08-31T13:18:57;5.40;;;1.85;;
69594;SDS011;56800;52.142;5.364;2023-08-31T13:21:23;5.95;;;1.50;;
69594;SDS011;56800;52.142;5.364;2023-08-31T13:23:50;7.90;;;2.35;;
69594;SDS011;56800;52.142;5.364;2023-08-31T13:26:17;4.97;;;1.98;;
69594;SDS011;56800;52.142;5.364;2023-08-31T13:28:43;4.33;;;1.80;;
69594;SDS011;56800;52.142;5.364;2023-08-31T13:31:10;6.40;;;1.63;;
69594;SDS011;56800;52.142;5.364;2023-08-31T13:33:38;7.53;;;1.42;;
69594;SDS011;56800;52.142;5.364;2023-08-31T13:36:05;5.30;;;1.95;;
69594;SDS011;56800;52.142;5.364;2023-08-31T13:38:31;3.65;;;1.80;;
69594;SDS011;56800;52.142;5.364;2023-08-31T13:40:58;4.40;;;2.00;;
69594;SDS011;56800;52.142;5.364;2023-08-31T13:43:25;6.28;;;2.22;;
69594;SDS011;56800;52.142;5.364;2023-08-31T13:45:52;4.43;;;1.52;;
69594;SDS011;56800;52.142;5.364;2023-08-31T13:48:19;4.88;;;1.75;;
69594;SDS011;56800;52.142;5.364;2023-08-31T13:50:48;4.63;;;1.60;;
69594;SDS011;56800;52.142;5.364;2023-08-31T13:53:15;3.63;;;1.70;;
69594;SDS011;56800;52.142;5.364;2023-08-31T13:55:42;5.18;;;2.25;;
69594;SDS011;56800;52.142;5.364;2023-08-31T13:58:09;6.30;;;2.00;;
69594;SDS011;56800;52.142;5.364;2023-08-31T14:00:36;5.72;;;2.20;;
69594;SDS011;56800;52.142;5.364;2023-08-31T14:03:04;4.70;;;2.17;;
69594;SDS011;56800;52.142;5.364;2023-08-31T14:05:31;7.73;;;1.70;;
69594;SDS011;56800;52.142;5.364;2023-08-31T14:07:59;4.35;;;1.40;;
69594;SDS011;56800;52.142;5.364;2023-08-31T14:10:30;4.05;;;2.00;;
69594;SDS011;56800;52.142;5.364;2023-08-31T14:12:58;8.40;;;2.00;;
69594;SDS011;56800;52.142;5.364;2023-08-31T14:15:25;4.68;;;2.00;;
69594;SDS011;56800;52.142;5.364;2023-08-31T14:17:53;5.63;;;2.43;;
69594;SDS011;56800;52.142;5.364;2023-08-31T14:20:20;5.90;;;1.73;;
69594;SDS011;56800;52.142;5.364;2023-08-31T14:22:46;5.43;;;1.50;;
69594;SDS011;56800;52.142;5.364;2023-08-31T14:25:13;3.13;;;1.35;;
69594;SDS011;56800;52.142;5.364;2023-08-31T14:27:40;4.35;;;1.80;;
69594;SDS011;56800;52.142;5.364;2023-08-31T14:30:07;5.77;;;1.87;;
69594;SDS011;56800;52.142;5.364;2023-08-31T14:32:35;5.32;;;1.90;;
69594;SDS011;56800;52.142;5.364;2023-08-31T14:35:02;6.45;;;2.10;;
69594;SDS011;56800;52.142;5.364;2023-08-31T14:37:30;4.32;;;1.75;;
69594;SDS011;56800;52.142;5.364;2023-08-31T14:39:57;5.72;;;1.75;;
69594;SDS011;56800;52.142;5.364;2023-08-31T14:42:24;8.07;;;1.97;;
69594;SDS011;56800;52.142;5.364;2023-08-31T14:44:51;3.63;;;2.28;;
69594;SDS011;56800;52.142;5.364;2023-08-31T14:47:18;5.60;;;1.85;;
69594;SDS011;56800;52.142;5.364;2023-08-31T14:49:44;4.47;;;1.88;;
69594;SDS011;56800;52.142;5.364;2023-08-31T14:52:12;5.20;;;1.90;;
69594;SDS011;56800;52.142;5.364;2023-08-31T14:54:38;6.33;;;1.83;;
69594;SDS011;56800;52.142;5.364;2023-08-31T14:57:05;3.78;;;1.42;;
69594;SDS011;56800;52.142;5.364;2023-08-31T14:59:32;6.25;;;1.70;;
69594;SDS011;56800;52.142;5.364;2023-08-31T15:01:59;3.90;;;1.88;;
69594;SDS011;56800;52.142;5.364;2023-08-31T15:04:31;6.85;;;2.00;;
69594;SDS011;56800;52.142;5.364;2023-08-31T15:06:58;4.77;;;1.77;;
69594;SDS011;56800;52.142;5.364;2023-08-31T15:09:25;6.22;;;1.90;;
69594;SDS011;56800;52.142;5.364;2023-08-31T15:11:52;5.07;;;2.35;;
69594;SDS011;56800;52.142;5.364;2023-08-31T15:14:19;5.90;;;1.75;;
69594;SDS011;56800;52.142;5.364;2023-08-31T15:16:46;7.60;;;2.17;;
69594;SDS011;56800;52.142;5.364;2023-08-31T15:19:13;8.10;;;2.10;;
69594;SDS011;56800;52.142;5.364;2023-08-31T15:21:40;6.13;;;1.60;;
69594;SDS011;56800;52.142;5.364;2023-08-31T15:24:06;11.38;;;1.88;;